Time;durP1;ratioP1;P1;durP2;ratioP2;P2;SDS_P1;SDS_P2;PMS_P1;PMS_P2;Temp;Humidity;BMP_temperature;BMP_pressure;BME280_temperature;BME280_humidity;BME280_pressure;Samples;Min_cycle;Max_cycle;Signal;HPM_P1;HPM_P2
2024/02/08 00:02:04;;;;;;;0.00;0.00;;;26.00;46.40;;;;;;5048056;28;20562;-41
2024/02/08 00:04:37;;;;;;;0.00;0.00;;;26.10;46.50;;;;;;5047265;28;20247;-40
2024/02/08 00:07:09;;;;;;;0.00;0.00;;;26.10;47.10;;;;;;5047382;28;20698;-41
2024/02/08 00:09:42;;;;;;;0.00;0.00;;;26.10;46.40;;;;;;5067299;28;20194;-40
2024/02/08 00:12:16;;;;;;;0.00;0.00;;;26.10;46.40;;;;;;5052999;28;20195;-43
2024/02/08 00:14:49;;;;;;;0.00;0.00;;;26.20;46.30;;;;;;5048303;28;20652;-41
2024/02/08 00:17:20;;;;;;;0.00;0.00;;;26.20;46.20;;;;;;5047701;28;20632;-48
2024/02/08 00:19:52;;;;;;;0.00;0.00;;;26.20;46.10;;;;;;5048370;28;20581;-42
2024/02/08 00:22:23;;;;;;;0.00;0.00;;;26.20;46.10;;;;;;5047679;28;20195;-45
2024/02/08 00:24:56;;;;;;;0.00;0.00;;;26.20;46.00;;;;;;5048578;28;20536;-41
2024/02/08 00:27:28;;;;;;;0.00;0.00;;;26.30;46.00;;;;;;5052023;28;20245;-45
2024/02/08 00:30:01;;;;;;;0.00;0.00;;;26.30;46.00;;;;;;5087480;28;20198;-42
2024/02/08 00:32:32;;;;;;;0.00;0.00;;;26.30;45.90;;;;;;5087756;28;20202;-44
2024/02/08 00:35:04;;;;;;;0.00;0.00;;;26.30;45.90;;;;;;5087541;28;20546;-45
2024/02/08 00:37:35;;;;;;;0.00;0.00;;;26.40;45.80;;;;;;5065651;28;20241;-47
2024/02/08 00:40:10;;;;;;;0.00;0.00;;;26.40;45.80;;;;;;5052376;28;20199;-44
2024/02/08 00:42:41;;;;;;;0.00;0.00;;;26.40;45.80;;;;;;5067102;28;20198;-47
2024/02/08 00:45:14;;;;;;;0.00;0.00;;;26.40;45.70;;;;;;5067562;28;20270;-45
2024/02/08 00:47:46;;;;;;;0.00;0.00;;;26.40;45.60;;;;;;5066962;28;20728;-40
2024/02/08 00:50:17;;;;;;;0.00;0.00;;;26.40;45.50;;;;;;5053128;28;20192;-40
2024/02/08 00:52:49;;;;;;;0.00;0.00;;;26.50;45.60;;;;;;5062998;28;20539;-41
2024/02/08 00:55:22;;;;;;;0.00;0.00;;;26.50;45.50;;;;;;5074770;28;20198;-43
2024/02/08 00:57:54;;;;;;;0.00;0.00;;;26.50;45.40;;;;;;5074122;28;20233;-47
2024/02/08 01:00:25;;;;;;;0.00;0.00;;;26.50;45.40;;;;;;5074576;28;20526;-43
2024/02/08 01:02:58;;;;;;;0.00;0.00;;;26.50;45.40;;;;;;5074692;28;20627;-42
2024/02/08 01:05:29;;;;;;;0.00;0.00;;;26.50;45.40;;;;;;5074648;28;20722;-46
2024/02/08 01:08:01;;;;;;;0.00;0.00;;;26.50;45.50;;;;;;5074832;28;20569;-47
2024/02/08 01:10:35;;;;;;;0.00;0.00;;;26.50;45.40;;;;;;5074141;28;20202;-47
2024/02/08 01:13:06;;;;;;;0.00;0.00;;;26.50;45.40;;;;;;5074417;28;20288;-46
2024/02/08 01:15:38;;;;;;;0.00;0.00;;;26.50;45.50;;;;;;5073801;28;20187;-40
2024/02/08 01:18:10;;;;;;;0.00;0.00;;;26.50;45.40;;;;;;5074009;28;20581;-43
2024/02/08 01:20:42;;;;;;;0.00;0.00;;;26.50;45.40;;;;;;5072671;28;20268;-45
2024/02/08 01:23:17;;;;;;;0.00;0.00;;;26.50;45.50;;;;;;5071473;28;20616;-47
2024/02/08 01:25:50;;;;;;;0.00;0.00;;;26.50;45.50;;;;;;5070312;28;20194;-47
2024/02/08 01:28:22;;;;;;;0.00;0.00;;;26.60;45.70;;;;;;5071418;28;20589;-43
2024/02/08 01:30:54;;;;;;;0.00;0.00;;;26.60;45.70;;;;;;5071049;28;20273;-44
2024/02/08 01:33:25;;;;;;;0.00;0.00;;;26.60;45.70;;;;;;5070350;28;20271;-43
2024/02/08 01:35:57;;;;;;;0.00;0.00;;;26.60;45.60;;;;;;5051519;28;20531;-44
2024/02/08 01:38:29;;;;;;;0.00;0.00;;;26.60;45.70;;;;;;5055754;28;20544;-42
2024/02/08 01:41:02;;;;;;;0.00;0.00;;;26.70;45.80;;;;;;5070812;28;20291;-42
2024/02/08 01:43:33;;;;;;;0.00;0.00;;;26.70;45.90;;;;;;5071116;28;20202;-45
2024/02/08 01:46:08;;;;;;;0.00;0.00;;;26.70;45.80;;;;;;5070556;28;20245;-46
2024/02/08 01:48:44;;;;;;;0.00;0.00;;;26.70;45.80;;;;;;5052282;28;20218;-48
2024/02/08 01:51:16;;;;;;;0.00;0.00;;;26.70;45.70;;;;;;5050462;28;20558;-41
2024/02/08 01:53:49;;;;;;;0.00;0.00;;;26.80;46.40;;;;;;5048739;28;20264;-48
2024/02/08 01:56:22;;;;;;;0.00;0.00;;;26.80;45.80;;;;;;5050313;28;20338;-44
2024/02/08 01:58:53;;;;;;;0.00;0.00;;;26.80;45.80;;;;;;5049976;28;20219;-46
2024/02/08 02:01:25;;;;;;;0.00;0.00;;;26.80;45.80;;;;;;5050535;28;20199;-49
2024/02/08 02:03:57;;;;;;;0.00;0.00;;;26.80;45.70;;;;;;5049979;28;20250;-45
2024/02/08 02:06:28;;;;;;;0.00;0.00;;;26.80;45.70;;;;;;5049792;28;20200;-46
2024/02/08 02:09:00;;;;;;;0.00;0.00;;;26.90;45.70;;;;;;5049891;28;20215;-46
2024/02/08 02:11:38;;;;;;;0.00;0.00;;;26.90;45.70;;;;;;5066027;28;20527;-46
2024/02/08 02:14:15;;;;;;;0.00;0.00;;;26.90;45.60;;;;;;5062037;28;20187;-46
2024/02/08 02:16:46;;;;;;;0.00;0.00;;;26.90;45.60;;;;;;5069537;28;20596;-48
2024/02/08 02:19:18;;;;;;;0.00;0.00;;;27.00;45.60;;;;;;5070481;28;20280;-45
2024/02/08 02:21:51;;;;;;;0.00;0.00;;;27.00;45.60;;;;;;5070426;28;20273;-44
2024/02/08 02:24:24;;;;;;;0.00;0.00;;;27.00;45.50;;;;;;5069735;28;20558;-46
2024/02/08 02:26:57;;;;;;;0.00;0.00;;;27.00;45.50;;;;;;5064278;28;20615;-47
2024/02/08 02:29:29;;;;;;;0.00;0.00;;;27.00;45.40;;;;;;5049971;28;20202;-48
2024/02/08 02:32:01;;;;;;;0.00;0.00;;;27.00;45.40;;;;;;5049511;28;20552;-45
2024/02/08 02:34:33;;;;;;;0.00;0.00;;;27.10;45.40;;;;;;5058989;28;20563;-45
2024/02/08 02:37:07;;;;;;;0.00;0.00;;;27.00;45.30;;;;;;5077467;28;20205;-46
2024/02/08 02:39:40;;;;;;;0.00;0.00;;;27.10;45.30;;;;;;5092202;28;20550;-41
2024/02/08 02:42:11;;;;;;;0.00;0.00;;;27.10;45.30;;;;;;5072765;28;20291;-42
2024/02/08 02:44:43;;;;;;;0.00;0.00;;;27.10;45.30;;;;;;5072535;28;20569;-48
2024/02/08 02:47:14;;;;;;;0.00;0.00;;;27.10;45.20;;;;;;5073661;28;20567;-44
2024/02/08 02:49:46;;;;;;;0.00;0.00;;;27.10;45.30;;;;;;5071127;28;20557;-45
2024/02/08 02:52:20;;;;;;;0.00;0.00;;;27.20;45.30;;;;;;5072141;28;20524;-44
2024/02/08 02:54:51;;;;;;;0.00;0.00;;;27.20;45.30;;;;;;5072489;28;20264;-42
2024/02/08 02:57:23;;;;;;;0.00;0.00;;;27.20;45.30;;;;;;5072061;28;20616;-46
2024/02/08 02:59:59;;;;;;;0.00;0.00;;;27.20;45.30;;;;;;5071975;28;20534;-45
2024/02/08 03:02:31;;;;;;;0.00;0.00;;;27.20;45.20;;;;;;5071977;28;20198;-44
2024/02/08 03:05:05;;;;;;;0.00;0.00;;;27.20;45.20;;;;;;5072603;28;20559;-42
2024/02/08 03:07:42;;;;;;;0.00;0.00;;;27.20;45.10;;;;;;5072209;28;20304;-43
2024/02/08 03:10:13;;;;;;;0.00;0.00;;;27.20;45.10;;;;;;5071879;28;20333;-42
2024/02/08 03:12:44;;;;;;;0.00;0.00;;;27.30;45.10;;;;;;5071733;28;20195;-44
2024/02/08 03:15:17;;;;;;;0.00;0.00;;;27.30;45.10;;;;;;5071690;28;20557;-46
2024/02/08 03:17:49;;;;;;;0.00;0.00;;;27.30;45.10;;;;;;5068140;28;20237;-46
2024/02/08 03:20:23;;;;;;;0.00;0.00;;;27.30;45.10;;;;;;5066203;28;20198;-42
2024/02/08 03:22:57;;;;;;;0.00;0.00;;;27.30;45.10;;;;;;5068348;28;20594;-46
2024/02/08 03:25:30;;;;;;;0.00;0.00;;;27.30;45.60;;;;;;5068826;28;20198;-44
2024/02/08 03:28:04;;;;;;;0.00;0.00;;;27.30;45.10;;;;;;5069339;28;20807;-46
2024/02/08 03:30:35;;;;;;;0.00;0.00;;;27.30;45.10;;;;;;5068232;28;20194;-46
2024/02/08 03:33:15;;;;;;;0.00;0.00;;;27.30;45.50;;;;;;5052879;28;20618;-46
2024/02/08 03:35:53;;;;;;;0.00;0.00;;;27.30;45.20;;;;;;5050583;28;20525;-46
2024/02/08 03:38:27;;;;;;;0.00;0.00;;;27.30;45.30;;;;;;5066757;28;20621;-40
2024/02/08 03:40:58;;;;;;;0.00;0.00;;;27.30;45.30;;;;;;5068008;28;20287;-42
2024/02/08 03:43:29;;;;;;;0.00;0.00;;;27.30;45.30;;;;;;5068222;28;20550;-41
2024/02/08 03:46:04;;;;;;;0.00;0.00;;;27.20;45.30;;;;;;5055383;28;20541;-41
2024/02/08 03:48:36;;;;;;;0.00;0.00;;;27.20;45.40;;;;;;5055779;28;20222;-40
2024/02/08 03:51:10;;;;;;;0.00;0.00;;;27.20;45.40;;;;;;5068315;28;20198;-44
2024/02/08 03:53:45;;;;;;;0.00;0.00;;;27.20;45.40;;;;;;5069024;28;20529;-40
2024/02/08 03:56:26;;;;;;;0.00;0.00;;;27.20;45.50;;;;;;5067332;28;20202;-40
2024/02/08 03:59:07;;;;;;;0.00;0.00;;;27.20;45.50;;;;;;5052490;28;20622;-40
2024/02/08 04:01:38;;;;;;;0.00;0.00;;;27.10;45.50;;;;;;5047502;28;20692;-40
2024/02/08 04:04:15;;;;;;;0.00;0.00;;;27.10;45.50;;;;;;5048278;28;20210;-40
2024/02/08 04:07:01;;;;;;;0.00;0.00;;;27.10;45.50;;;;;;5047467;28;20601;-44
2024/02/08 04:09:36;;;;;;;0.00;0.00;;;27.10;45.60;;;;;;5047695;28;20274;-41
2024/02/08 04:54:12;;;;;;;0.00;0.00;;;26.70;45.60;;;;;;5074785;28;20704;-42
2024/02/08 04:56:46;;;;;;;0.00;0.00;;;26.70;45.70;;;;;;5073786;28;20546;-46
2024/02/08 04:59:20;;;;;;;0.00;0.00;;;26.70;45.70;;;;;;5074315;28;20569;-57
2024/02/08 05:01:53;;;;;;;0.00;0.00;;;26.60;45.70;;;;;;5074991;28;20259;-44
2024/02/08 05:04:24;;;;;;;0.00;0.00;;;26.60;45.80;;;;;;5074696;28;20545;-48
2024/02/08 05:06:57;;;;;;;0.00;0.00;;;26.60;45.90;;;;;;5074712;28;20556;-46
2024/02/08 05:09:28;;;;;;;0.00;0.00;;;26.50;46.00;;;;;;5074437;28;20667;-44
2024/02/08 05:11:59;;;;;;;0.00;0.00;;;26.50;46.00;;;;;;5070935;28;20191;-45
2024/02/08 05:14:34;;;;;;;0.00;0.00;;;26.40;46.60;;;;;;5072822;28;20187;-42
2024/02/08 05:17:08;;;;;;;0.00;0.00;;;26.40;46.10;;;;;;5071248;28;20202;-45
2024/02/08 05:19:43;;;;;;;0.00;0.00;;;26.40;46.10;;;;;;5070590;28;20269;-44
2024/02/08 05:22:15;;;;;;;0.00;0.00;;;26.40;46.10;;;;;;5070169;28;20596;-49
2024/02/08 05:24:46;;;;;;;0.00;0.00;;;26.30;46.10;;;;;;5070797;28;20589;-45
2024/02/08 05:27:18;;;;;;;0.00;0.00;;;26.30;46.10;;;;;;5059218;28;20191;-40
2024/02/08 05:29:51;;;;;;;0.00;0.00;;;26.20;46.00;;;;;;5050377;28;20243;-46
2024/02/08 05:32:23;;;;;;;0.00;0.00;;;26.20;46.00;;;;;;5069946;28;20195;-46
2024/02/08 05:34:54;;;;;;;0.00;0.00;;;26.20;46.00;;;;;;5070447;28;20584;-45
2024/02/08 05:37:29;;;;;;;0.00;0.00;;;26.20;46.00;;;;;;5069335;28;20311;-45
2024/02/08 05:40:01;;;;;;;0.00;0.00;;;26.20;46.00;;;;;;5067455;28;20222;-42
2024/02/08 05:42:33;;;;;;;0.00;0.00;;;26.20;46.00;;;;;;5050735;28;20555;-46
2024/02/08 05:45:18;;;;;;;0.00;0.00;;;26.10;45.90;;;;;;5067279;28;20619;-46
2024/02/08 05:47:50;;;;;;;0.00;0.00;;;26.10;45.90;;;;;;5069853;28;20301;-48
2024/02/08 05:50:24;;;;;;;0.00;0.00;;;26.10;45.90;;;;;;5070307;28;20191;-43
2024/02/08 05:52:57;;;;;;;0.00;0.00;;;26.10;45.90;;;;;;5063426;28;20242;-47
2024/02/08 05:55:28;;;;;;;0.00;0.00;;;26.10;45.90;;;;;;5050536;28;20527;-44
2024/02/08 05:57:59;;;;;;;0.00;0.00;;;26.10;45.80;;;;;;5049835;28;20299;-47
2024/02/08 06:00:45;;;;;;;0.00;0.00;;;26.00;45.80;;;;;;5049305;28;20648;-49
2024/02/08 06:03:27;;;;;;;0.10;0.10;;;26.00;45.70;;;;;;5049719;28;20571;-43
2024/02/08 06:06:15;;;;;;;0.00;0.00;;;26.00;45.70;;;;;;5049783;28;20207;-46
2024/02/08 06:08:56;;;;;;;0.00;0.00;;;26.00;45.60;;;;;;5067785;28;20501;-46
2024/02/08 06:11:27;;;;;;;0.00;0.00;;;25.90;45.50;;;;;;5068090;28;20560;-47
2024/02/08 06:14:06;;;;;;;0.00;0.00;;;25.90;45.40;;;;;;5069641;28;20199;-48
2024/02/08 06:16:45;;;;;;;0.00;0.00;;;25.90;45.40;;;;;;5068830;28;20307;-46
2024/02/08 06:19:17;;;;;;;0.00;0.00;;;25.90;45.30;;;;;;5062762;28;20211;-48
2024/02/08 06:21:57;;;;;;;0.00;0.00;;;25.90;45.30;;;;;;5064929;28;20213;-44
2024/02/08 06:24:44;;;;;;;0.00;0.00;;;25.80;45.20;;;;;;5069356;28;20296;-47
2024/02/08 06:27:23;;;;;;;0.00;0.00;;;25.80;45.20;;;;;;5069165;28;20366;-49
2024/02/08 06:29:54;;;;;;;0.00;0.00;;;25.80;45.20;;;;;;5069924;28;20409;-46
2024/02/08 06:32:43;;;;;;;0.00;0.00;;;25.80;45.10;;;;;;5069738;28;20199;-44
2024/02/08 06:35:19;;;;;;;0.00;0.00;;;25.70;45.10;;;;;;5049936;28;20192;-44
2024/02/08 06:38:00;;;;;;;0.00;0.00;;;25.80;45.10;;;;;;5049228;28;20597;-49
2024/02/08 06:40:50;;;;;;;0.00;0.00;;;25.70;45.00;;;;;;5057816;28;20578;-47
2024/02/08 06:43:35;;;;;;;0.00;0.00;;;25.70;45.00;;;;;;5068446;28;20540;-45
2024/02/08 06:46:17;;;;;;;0.00;0.00;;;25.70;44.90;;;;;;5058918;28;20534;-46
2024/02/08 07:41:55;;;;;;;0.00;0.00;;;25.30;44.60;;;;;;5044033;28;20210;-46
2024/02/08 07:44:31;;;;;;;0.00;0.00;;;25.30;44.60;;;;;;5049288;28;20203;-43
2024/02/08 07:47:03;;;;;;;0.00;0.00;;;25.30;44.60;;;;;;5067359;28;20201;-49
2024/02/08 07:49:43;;;;;;;0.00;0.00;;;25.30;44.60;;;;;;5067902;28;20231;-49
2024/02/08 07:52:19;;;;;;;0.00;0.00;;;25.30;44.60;;;;;;5067086;28;20229;-49
2024/02/08 07:54:56;;;;;;;0.00;0.00;;;25.30;44.60;;;;;;5052690;28;20199;-45
2024/02/08 07:57:31;;;;;;;0.00;0.00;;;25.30;44.60;;;;;;5047407;28;20245;-45
2024/02/08 08:00:02;;;;;;;0.00;0.00;;;25.20;44.50;;;;;;5047306;28;20203;-49
2024/02/08 08:02:35;;;;;;;0.00;0.00;;;25.20;44.50;;;;;;5047394;28;20568;-43
2024/02/08 08:05:14;;;;;;;0.00;0.00;;;25.20;44.50;;;;;;5047406;28;20199;-47
2024/02/08 08:07:45;;;;;;;0.00;0.00;;;25.20;44.40;;;;;;5056457;28;20222;-50
2024/02/08 08:10:25;;;;;;;0.00;0.00;;;25.20;44.40;;;;;;5067283;28;20198;-44
2024/02/08 08:12:56;;;;;;;0.00;0.00;;;25.20;44.50;;;;;;5067982;28;20199;-46
2024/02/08 08:15:25;;;;;;;0.00;0.00;;;25.20;44.50;;;;;;5066828;28;20199;-42
2024/02/08 08:18:02;;;;;;;0.10;0.10;;;25.10;44.40;;;;;;5067438;28;20229;-48
2024/02/08 08:23:27;;;;;;;0.00;0.00;;;25.10;44.40;;;;;;5047415;28;20340;-44
2024/02/08 08:26:23;;;;;;;0.00;0.00;;;25.10;44.40;;;;;;5046884;28;20627;-47
2024/02/08 08:29:02;;;;;;;0.00;0.00;;;25.10;44.40;;;;;;5047478;28;20240;-46
2024/02/08 08:31:36;;;;;;;0.00;0.00;;;25.10;44.40;;;;;;5047256;28;20203;-47
2024/02/08 08:36:57;;;;;;;0.00;0.00;;;25.10;44.40;;;;;;5033872;28;20195;-46
2024/02/08 08:42:23;;;;;;;0.00;0.00;;;25.10;44.30;;;;;;5057702;28;20285;-48
2024/02/08 08:44:59;;;;;;;0.00;0.00;;;25.10;44.30;;;;;;5066320;28;20203;-45
2024/02/08 08:47:30;;;;;;;0.00;0.00;;;25.10;44.30;;;;;;5064397;28;20236;-45
2024/02/08 08:50:17;;;;;;;0.00;0.00;;;25.00;44.20;;;;;;5064375;28;20218;-49
2024/02/08 08:52:57;;;;;;;0.00;0.00;;;25.00;44.30;;;;;;5069002;28;20203;-49
2024/02/08 08:55:28;;;;;;;0.00;0.00;;;25.00;44.20;;;;;;5065623;28;20668;-41
2024/02/08 08:58:03;;;;;;;0.00;0.00;;;25.00;44.20;;;;;;5065263;28;20219;-46
2024/02/08 09:00:37;;;;;;;0.00;0.00;;;25.00;44.30;;;;;;5066356;28;20199;-46
2024/02/08 09:03:10;;;;;;;0.05;0.05;;;25.00;44.30;;;;;;5047583;28;20195;-49
2024/02/08 09:05:43;;;;;;;0.00;0.00;;;24.90;44.30;;;;;;5064367;28;20203;-48
2024/02/08 09:08:21;;;;;;;0.00;0.00;;;24.90;44.20;;;;;;5065558;28;20222;-45
2024/02/08 09:10:52;;;;;;;0.00;0.00;;;25.00;44.30;;;;;;5064267;28;20579;-48
2024/02/08 09:13:28;;;;;;;0.00;0.00;;;24.90;44.20;;;;;;5066590;28;20394;-44
2024/02/08 09:16:29;;;;;;;0.00;0.00;;;24.90;44.20;;;;;;5070268;28;20206;-48
2024/02/08 09:19:04;;;;;;;0.00;0.00;;;24.90;44.20;;;;;;5069713;28;20288;-46
2024/02/08 09:21:36;;;;;;;0.00;0.00;;;24.90;44.20;;;;;;5067523;28;20203;-46
2024/02/08 09:24:11;;;;;;;0.00;0.00;;;24.90;44.20;;;;;;5069688;28;20281;-49
2024/02/08 09:26:48;;;;;;;0.00;0.00;;;24.90;44.20;;;;;;5069284;28;20676;-47
2024/02/08 09:29:25;;;;;;;0.10;0.10;;;24.90;44.20;;;;;;5058770;28;20851;-47
2024/02/08 09:31:58;;;;;;;0.00;0.00;;;24.90;44.20;;;;;;5068707;28;20198;-44
2024/02/08 09:34:36;;;;;;;0.00;0.00;;;24.90;44.20;;;;;;5070092;28;20205;-48
2024/02/08 09:37:08;;;;;;;0.00;0.00;;;24.90;44.20;;;;;;5069123;28;20221;-45
2024/02/08 09:39:53;;;;;;;0.00;0.00;;;24.90;44.20;;;;;;5069097;28;20203;-45
2024/02/08 09:42:26;;;;;;;0.00;0.00;;;24.90;44.20;;;;;;5057335;28;20203;-48
2024/02/08 09:45:13;;;;;;;0.00;0.00;;;24.90;44.20;;;;;;5049937;28;20199;-48
2024/02/08 09:47:51;;;;;;;0.00;0.00;;;24.80;44.10;;;;;;5050369;28;20215;-46
2024/02/08 09:50:31;;;;;;;0.00;0.00;;;24.80;44.10;;;;;;5053535;28;20242;-48
2024/02/08 09:53:07;;;;;;;0.00;0.00;;;24.90;44.20;;;;;;5070220;28;20195;-48
2024/02/08 09:55:38;;;;;;;0.03;0.03;;;24.80;44.80;;;;;;5053954;28;20207;-48
2024/02/08 09:58:10;;;;;;;0.00;0.00;;;24.80;44.10;;;;;;5049666;28;20700;-48
2024/02/08 10:00:54;;;;;;;0.10;0.10;;;24.80;44.10;;;;;;5049857;28;20210;-45
2024/02/08 10:03:34;;;;;;;0.00;0.00;;;24.80;44.20;;;;;;5049466;28;20234;-43
2024/02/08 10:06:23;;;;;;;0.00;0.00;;;24.80;44.20;;;;;;5050020;28;20207;-46
2024/02/08 10:08:54;;;;;;;0.00;0.00;;;24.80;44.10;;;;;;5068630;28;20234;-47
2024/02/08 10:11:36;;;;;;;0.00;0.00;;;24.80;44.10;;;;;;5069950;28;20199;-47
2024/02/08 10:14:25;;;;;;;0.00;0.00;;;24.80;44.20;;;;;;5068871;28;20583;-46
2024/02/08 10:16:59;;;;;;;0.00;0.00;;;24.70;44.20;;;;;;5069687;28;20298;-46
2024/02/08 10:19:43;;;;;;;0.00;0.00;;;24.80;44.20;;;;;;5069134;28;20190;-48
2024/02/08 10:22:18;;;;;;;0.00;0.00;;;24.80;44.20;;;;;;5049787;28;20282;-45
2024/02/08 10:27:40;;;;;;;0.00;0.00;;;24.70;44.10;;;;;;5049262;28;20214;-49
2024/02/08 10:30:25;;;;;;;0.00;0.00;;;24.70;44.10;;;;;;5048540;28;20596;-48
2024/02/08 10:32:58;;;;;;;0.00;0.00;;;24.70;44.10;;;;;;5062895;28;20203;-49
2024/02/08 10:35:29;;;;;;;0.00;0.00;;;24.70;44.10;;;;;;5072453;28;20190;-49
2024/02/08 10:38:09;;;;;;;0.00;0.00;;;24.70;44.20;;;;;;5072989;28;20218;-50
2024/02/08 10:40:47;;;;;;;0.00;0.00;;;24.70;44.80;;;;;;5072703;28;20435;-50
2024/02/08 10:43:24;;;;;;;0.00;0.00;;;24.70;44.20;;;;;;5072247;28;20248;-49
2024/02/08 10:46:02;;;;;;;0.00;0.00;;;24.70;44.20;;;;;;5073455;28;20195;-48
2024/02/08 10:48:34;;;;;;;0.08;0.08;;;24.70;44.20;;;;;;5092675;28;20232;-47
2024/02/08 10:51:11;;;;;;;0.00;0.00;;;24.70;44.20;;;;;;5093083;28;20198;-51
2024/02/08 10:53:48;;;;;;;0.00;0.00;;;24.70;44.20;;;;;;5092577;28;20538;-50
2024/02/08 10:56:40;;;;;;;0.00;0.00;;;24.70;44.20;;;;;;5092300;28;20198;-51
2024/02/08 10:59:13;;;;;;;0.00;0.00;;;24.70;44.20;;;;;;5085630;28;20248;-50
2024/02/08 11:04:43;;;;;;;0.00;0.00;;;24.60;44.10;;;;;;5035527;28;20203;-49
2024/02/08 11:07:23;;;;;;;0.00;0.00;;;24.60;44.10;;;;;;5069011;28;20193;-48
2024/02/08 11:09:54;;;;;;;0.00;0.00;;;24.60;44.10;;;;;;5071386;28;20221;-46
2024/02/08 11:12:29;;;;;;;0.00;0.00;;;24.60;44.10;;;;;;5071598;28;20223;-46
2024/02/08 11:15:13;;;;;;;0.00;0.00;;;24.60;44.10;;;;;;5069620;28;20583;-48
2024/02/08 11:17:49;;;;;;;0.00;0.00;;;24.60;44.10;;;;;;5070562;28;20289;-45
2024/02/08 11:20:42;;;;;;;0.00;0.00;;;24.60;44.10;;;;;;5069814;28;20182;-46
2024/02/08 11:23:18;;;;;;;0.00;0.00;;;24.60;44.10;;;;;;5071432;28;20250;-49
2024/02/08 11:25:49;;;;;;;0.00;0.00;;;24.60;44.10;;;;;;5071911;28;20281;-44
2024/02/08 11:28:24;;;;;;;0.00;0.00;;;24.50;44.10;;;;;;5069331;28;20235;-49
2024/02/08 11:30:56;;;;;;;0.00;0.00;;;24.50;44.10;;;;;;5069814;28;20221;-47
2024/02/08 11:33:42;;;;;;;0.00;0.00;;;24.50;44.10;;;;;;5071171;28;20198;-48
2024/02/08 11:36:16;;;;;;;0.00;0.00;;;24.50;44.10;;;;;;5070599;28;20240;-45
2024/02/08 11:38:53;;;;;;;0.00;0.00;;;24.50;44.10;;;;;;5070381;28;20304;-46
2024/02/08 11:41:25;;;;;;;0.05;0.05;;;24.50;44.10;;;;;;5069761;28;20544;-47
2024/02/08 11:44:02;;;;;;;0.00;0.00;;;24.50;44.10;;;;;;5070930;28;20191;-44
2024/02/08 11:46:37;;;;;;;0.00;0.00;;;24.50;44.20;;;;;;5071610;28;20198;-47
2024/02/08 11:49:14;;;;;;;0.00;0.00;;;24.50;44.10;;;;;;5071766;28;20218;-47
2024/02/08 11:51:48;;;;;;;0.00;0.00;;;24.50;44.10;;;;;;5071881;28;20288;-47
2024/02/08 11:54:28;;;;;;;0.00;0.00;;;24.50;44.10;;;;;;5071667;28;20197;-45
2024/02/08 11:57:03;;;;;;;0.00;0.00;;;24.50;44.10;;;;;;5071405;28;20226;-47
2024/02/08 11:59:37;;;;;;;0.00;0.00;;;24.40;44.00;;;;;;5071267;28;20251;-48
2024/02/08 12:02:09;;;;;;;0.00;0.00;;;24.40;44.00;;;;;;5070906;28;20194;-46
2024/02/08 12:04:40;;;;;;;0.00;0.00;;;24.40;44.00;;;;;;5070994;28;20203;-48
2024/02/08 12:07:15;;;;;;;0.00;0.00;;;24.40;44.00;;;;;;5070950;28;20217;-48
2024/02/08 12:09:45;;;;;;;0.00;0.00;;;24.40;44.00;;;;;;5070614;28;20717;-48
2024/02/08 12:12:18;;;;;;;0.00;0.00;;;24.40;44.60;;;;;;5070387;28;20195;-46
2024/02/08 12:14:55;;;;;;;0.00;0.00;;;24.40;44.00;;;;;;5070883;28;20195;-47
2024/02/08 12:17:26;;;;;;;0.00;0.00;;;24.40;44.00;;;;;;5071283;28;20210;-48
2024/02/08 12:20:01;;;;;;;0.00;0.00;;;24.40;44.00;;;;;;5071433;28;20209;-48
2024/02/08 12:22:34;;;;;;;0.00;0.00;;;24.40;44.00;;;;;;5071164;28;20207;-46
2024/02/08 12:25:07;;;;;;;0.00;0.00;;;24.30;43.90;;;;;;5071171;28;20206;-46
2024/02/08 12:27:40;;;;;;;0.00;0.00;;;24.30;43.90;;;;;;5071045;28;20226;-49
2024/02/08 12:30:11;;;;;;;0.00;0.00;;;24.30;43.90;;;;;;5071020;28;20222;-45
2024/02/08 12:32:43;;;;;;;0.00;0.00;;;24.30;43.90;;;;;;5070985;28;20202;-47
2024/02/08 12:35:14;;;;;;;0.03;0.03;;;24.30;43.90;;;;;;5071248;28;20199;-48
2024/02/08 12:37:48;;;;;;;0.00;0.00;;;24.30;43.90;;;;;;5070261;28;20206;-47
2024/02/08 12:40:20;;;;;;;0.00;0.00;;;24.30;43.90;;;;;;5070552;28;20252;-47
2024/02/08 12:42:53;;;;;;;0.00;0.00;;;24.30;43.90;;;;;;5070771;28;20195;-48
2024/02/08 12:45:24;;;;;;;0.00;0.00;;;24.30;43.90;;;;;;5071073;28;20272;-49
2024/02/08 12:47:54;;;;;;;0.00;0.00;;;24.30;43.90;;;;;;5071475;28;20674;-47
2024/02/08 12:50:25;;;;;;;0.00;0.00;;;24.30;43.90;;;;;;5077871;28;20705;-48
2024/02/08 12:52:59;;;;;;;0.00;0.00;;;24.30;43.90;;;;;;5094506;28;20205;-48
2024/02/08 12:55:31;;;;;;;0.00;0.00;;;24.30;43.90;;;;;;5094807;28;20198;-45
2024/02/08 12:58:03;;;;;;;0.00;0.00;;;24.30;43.90;;;;;;5085466;28;20552;-49
2024/02/08 13:00:34;;;;;;;0.00;0.00;;;24.30;43.90;;;;;;5076808;28;20191;-49
2024/02/08 13:03:08;;;;;;;0.00;0.00;;;24.20;43.80;;;;;;5074470;28;20226;-47
2024/02/08 13:05:39;;;;;;;0.00;0.00;;;24.20;43.90;;;;;;5074419;28;20260;-48
2024/02/08 13:08:21;;;;;;;0.00;0.00;;;24.20;43.80;;;;;;5073487;28;20210;-45
2024/02/08 13:11:01;;;;;;;0.00;0.00;;;24.20;43.80;;;;;;5071519;28;20234;-48
2024/02/08 13:13:32;;;;;;;0.00;0.00;;;24.20;43.80;;;;;;5073777;28;20193;-47
2024/02/08 13:16:09;;;;;;;0.00;0.00;;;24.20;43.90;;;;;;5073991;28;20187;-47
2024/02/08 13:18:43;;;;;;;0.00;0.00;;;24.20;43.90;;;;;;5072511;28;20211;-47
2024/02/08 13:21:15;;;;;;;0.00;0.00;;;24.20;43.90;;;;;;5072252;28;20191;-47
2024/02/08 13:23:48;;;;;;;0.00;0.00;;;24.20;43.90;;;;;;5073931;28;20240;-48
2024/02/08 13:26:20;;;;;;;0.00;0.00;;;24.20;43.90;;;;;;5073472;28;20278;-48
2024/02/08 13:28:50;;;;;;;0.00;0.00;;;24.20;43.90;;;;;;5070681;28;20207;-46
2024/02/08 13:31:21;;;;;;;0.00;0.00;;;24.20;43.80;;;;;;5060143;22;20301;-48
2024/02/08 13:33:52;;;;;;;0.00;0.00;;;24.20;43.90;;;;;;4983462;28;20197;-48
2024/02/08 13:36:25;;;;;;;0.00;0.00;;;24.20;43.80;;;;;;4983315;28;20649;-48
2024/02/08 13:38:57;;;;;;;0.00;0.00;;;24.10;43.70;;;;;;4984241;28;20216;-47
2024/02/08 13:41:28;;;;;;;0.00;0.00;;;24.10;43.80;;;;;;4983169;28;20198;-49
2024/02/08 13:43:59;;;;;;;0.00;0.00;;;24.10;43.80;;;;;;4984448;28;20190;-48
2024/02/08 13:46:31;;;;;;;0.00;0.00;;;24.10;43.80;;;;;;4980321;28;20672;-47
2024/02/08 13:49:05;;;;;;;0.00;0.00;;;24.10;43.80;;;;;;4983863;28;20211;-48
2024/02/08 13:51:37;;;;;;;0.00;0.00;;;24.10;43.70;;;;;;4982235;28;20834;-44
2024/02/08 13:54:12;;;;;;;0.10;0.10;;;24.10;43.70;;;;;;4983005;28;20226;-45
2024/02/08 13:56:43;;;;;;;0.00;0.00;;;24.10;43.80;;;;;;4983341;28;20580;-45
2024/02/08 13:59:14;;;;;;;0.00;0.00;;;24.10;43.70;;;;;;4980620;28;20218;-45
2024/02/08 14:01:45;;;;;;;0.00;0.00;;;24.00;43.80;;;;;;4982898;28;20197;-45
2024/02/08 14:04:20;;;;;;;0.00;0.00;;;24.00;43.80;;;;;;4981329;28;20194;-45
2024/02/08 14:06:55;;;;;;;0.00;0.00;;;24.00;43.70;;;;;;4980425;28;20623;-46
2024/02/08 14:09:30;;;;;;;0.00;0.00;;;24.10;43.80;;;;;;4982385;28;20216;-44
2024/02/08 14:12:08;;;;;;;0.00;0.00;;;24.00;43.70;;;;;;4982999;28;20201;-45
2024/02/08 14:14:43;;;;;;;0.00;0.00;;;24.00;43.70;;;;;;4982449;28;20562;-45
2024/02/08 14:17:20;;;;;;;0.00;0.00;;;24.00;43.70;;;;;;4980958;28;20273;-45
2024/02/08 14:19:54;;;;;;;0.00;0.00;;;24.00;43.70;;;;;;4980006;28;20558;-45
2024/02/08 14:22:27;;;;;;;0.00;0.00;;;24.00;43.70;;;;;;4982620;28;20272;-45
2024/02/08 14:24:59;;;;;;;0.00;0.00;;;24.00;43.70;;;;;;4981897;28;20190;-45
2024/02/08 14:27:30;;;;;;;0.00;0.00;;;24.00;43.70;;;;;;4982471;28;20206;-45
2024/02/08 14:30:05;;;;;;;0.00;0.00;;;24.00;43.70;;;;;;4982932;28;20232;-45
2024/02/08 14:32:36;;;;;;;0.00;0.00;;;24.00;43.70;;;;;;4985779;23;20239;-45
2024/02/08 14:35:16;;;;;;;0.00;0.00;;;24.00;43.70;;;;;;4973690;28;20194;-45
2024/02/08 14:37:46;;;;;;;0.00;0.00;;;24.00;43.70;;;;;;4973490;28;20249;-47
2024/02/08 14:40:19;;;;;;;0.00;0.00;;;23.90;43.70;;;;;;4974009;28;20202;-47
2024/02/08 14:42:50;;;;;;;0.05;0.05;;;23.90;43.70;;;;;;4973479;28;20213;-46
2024/02/08 14:45:24;;;;;;;0.00;0.00;;;23.90;43.70;;;;;;4973599;28;20667;-44
2024/02/08 14:47:55;;;;;;;0.00;0.00;;;23.90;43.70;;;;;;4973517;28;20449;-49
2024/02/08 14:53:09;;;;;;;0.00;0.00;;;23.90;43.80;;;;;;4972780;28;20202;-47
2024/02/08 14:55:45;;;;;;;0.00;0.00;;;23.90;43.70;;;;;;4973651;28;20194;-45
2024/02/08 15:01:08;;;;;;;0.00;0.00;;;23.80;43.80;;;;;;4973699;28;20241;-49
2024/02/08 15:03:39;;;;;;;0.00;0.00;;;23.80;43.70;;;;;;4973568;28;20248;-48
2024/02/08 15:09:47;;;;;;;0.00;0.00;;;23.80;43.80;;;;;;4973200;28;20679;-48
2024/02/08 15:11:57;;;;;;;0.00;0.00;;;23.80;43.80;;;;;;4972103;28;20226;-48
2024/02/08 15:14:35;;;;;;;0.00;0.00;;;23.80;43.80;;;;;;4973019;28;20273;-45
2024/02/08 15:17:10;;;;;;;0.00;0.00;;;23.70;43.70;;;;;;4972996;28;20658;-46
2024/02/08 15:19:45;;;;;;;0.00;0.00;;;23.70;43.80;;;;;;4972685;28;20574;-47
2024/02/08 15:25:04;;;;;;;0.00;0.00;;;23.70;43.80;;;;;;4972799;28;20205;-46
2024/02/08 15:27:52;;;;;;;0.00;0.00;;;23.70;43.80;;;;;;4972725;28;20277;-49